Time;durP1;ratioP1;P1;durP2;ratioP2;P2;SDS_P1;SDS_P2;PMS_P1;PMS_P2;Temp;Humidity;BMP_temperature;BMP_pressure;BME280_temperature;BME280_humidity;BME280_pressure;Samples;Min_cycle;Max_cycle;Signal;HPM_P1;HPM_P2
2021/10/04 00:00:09;;;;;;;3.10;1.33;;;;;;;10.97;100.00;101073.88;5243090;28;20100;-68
2021/10/04 00:02:42;;;;;;;3.05;1.20;;;;;;;10.96;100.00;101077.47;5259707;28;20037;-69
2021/10/04 00:05:13;;;;;;;4.18;1.10;;;;;;;10.96;100.00;101101.06;5262094;28;20501;-69
2021/10/04 00:07:44;;;;;;;4.55;1.30;;;;;;;10.99;100.00;101100.81;5262578;28;20021;-69
2021/10/04 00:10:17;;;;;;;3.00;1.10;;;;;;;10.95;100.00;101081.88;5257757;28;20032;-68
2021/10/04 00:12:49;;;;;;;5.30;1.70;;;;;;;10.93;100.00;101096.06;5262335;28;20044;-69
2021/10/04 00:15:23;;;;;;;5.72;1.67;;;;;;;10.93;100.00;101089.03;5251278;28;20018;-69
2021/10/04 00:17:56;;;;;;;4.88;1.30;;;;;;;10.93;100.00;101096.91;5242459;28;20029;-69
2021/10/04 00:20:27;;;;;;;4.80;1.33;;;;;;;10.95;100.00;101107.28;5254548;28;20029;-69
2021/10/04 00:23:00;;;;;;;5.10;1.42;;;;;;;10.93;100.00;101119.66;5255042;28;20246;-69
2021/10/04 00:25:33;;;;;;;3.42;1.15;;;;;;;10.93;100.00;101128.34;5258554;28;20597;-68
2021/10/04 00:28:04;;;;;;;2.90;1.10;;;;;;;10.93;100.00;101130.97;5254579;28;20060;-68
2021/10/04 00:30:36;;;;;;;4.13;1.38;;;;;;;10.93;100.00;101132.75;5262044;28;20083;-69
2021/10/04 00:33:07;;;;;;;4.22;1.17;;;;;;;10.91;100.00;101130.28;5261304;28;20033;-69
2021/10/04 00:35:39;;;;;;;2.63;1.00;;;;;;;10.93;100.00;101125.72;5260222;28;20119;-68
2021/10/04 00:38:10;;;;;;;4.00;1.25;;;;;;;10.91;100.00;101117.19;5261133;28;20107;-68
2021/10/04 00:40:42;;;;;;;4.80;1.30;;;;;;;10.92;100.00;101124.06;5261944;28;20049;-69
2021/10/04 00:43:13;;;;;;;4.50;1.23;;;;;;;10.89;100.00;101124.31;5262523;28;20059;-69
2021/10/04 00:45:44;;;;;;;3.22;1.30;;;;;;;10.86;100.00;101121.94;5258835;28;20458;-69
2021/10/04 00:48:16;;;;;;;4.68;1.50;;;;;;;10.89;100.00;101132.19;5261366;28;20021;-69
2021/10/04 00:50:49;;;;;;;6.50;1.60;;;;;;;10.83;100.00;101126.59;5261832;28;20036;-69
2021/10/04 00:53:20;;;;;;;4.00;1.60;;;;;;;10.88;100.00;101133.16;5258430;28;20025;-68
2021/10/04 00:55:51;;;;;;;3.25;1.30;;;;;;;10.87;100.00;101131.50;5261293;28;20493;-68
2021/10/04 00:58:23;;;;;;;3.92;1.67;;;;;;;10.86;100.00;101128.97;5261121;28;20075;-68
2021/10/04 01:00:54;;;;;;;4.32;1.88;;;;;;;10.84;100.00;101139.59;5260166;28;20482;-68
2021/10/04 01:03:25;;;;;;;6.97;1.88;;;;;;;10.83;100.00;101150.19;5261410;28;20437;-68
2021/10/04 01:05:57;;;;;;;4.50;1.50;;;;;;;10.82;100.00;101161.63;5261282;28;20374;-70
2021/10/04 01:08:29;;;;;;;4.07;1.50;;;;;;;10.79;100.00;101157.47;5255811;28;20025;-68
2021/10/04 01:11:01;;;;;;;5.05;1.85;;;;;;;10.78;100.00;101141.88;5260549;28;20021;-68
2021/10/04 01:13:32;;;;;;;3.47;1.37;;;;;;;10.78;100.00;101147.94;5257639;28;20722;-68
2021/10/04 01:16:04;;;;;;;6.90;2.25;;;;;;;10.76;100.00;101149.00;5266466;28;20283;-69
2021/10/04 01:18:35;;;;;;;3.47;1.50;;;;;;;10.77;100.00;101138.44;5269435;28;20437;-69
2021/10/04 01:21:07;;;;;;;3.95;1.35;;;;;;;10.75;100.00;101135.09;5268885;28;20083;-70
2021/10/04 01:23:38;;;;;;;4.50;1.40;;;;;;;10.74;100.00;101148.31;5242544;28;20029;-68
2021/10/04 01:26:12;;;;;;;4.68;1.60;;;;;;;10.75;100.00;101149.97;5261202;28;20017;-68
2021/10/04 01:28:43;;;;;;;7.78;1.83;;;;;;;10.72;100.00;101148.47;5261351;28;20470;-68
2021/10/04 01:31:15;;;;;;;5.45;1.70;;;;;;;10.73;100.00;101147.50;5260276;28;20032;-69
2021/10/04 01:33:46;;;;;;;4.25;1.85;;;;;;;10.71;100.00;101154.63;5259466;28;20115;-68
2021/10/04 01:36:17;;;;;;;6.78;1.73;;;;;;;10.70;100.00;101152.97;5260690;28;20090;-69
2021/10/04 01:38:48;;;;;;;4.43;1.10;;;;;;;10.70;100.00;101153.81;5260732;28;20052;-69
2021/10/04 01:41:21;;;;;;;6.03;1.42;;;;;;;10.68;100.00;101149.63;5259411;28;20280;-68
2021/10/04 01:43:53;;;;;;;8.70;1.90;;;;;;;10.64;100.00;101150.84;5260330;28;20025;-68
2021/10/04 01:46:24;;;;;;;2.87;0.97;;;;;;;10.65;100.00;101148.13;5260647;28;20267;-69
2021/10/04 01:48:56;;;;;;;3.40;1.40;;;;;;;10.65;100.00;101149.91;5258051;28;20090;-69
2021/10/04 01:51:27;;;;;;;6.57;1.35;;;;;;;10.57;100.00;101140.03;5260098;28;20043;-68
2021/10/04 01:53:58;;;;;;;3.05;1.23;;;;;;;10.68;100.00;101152.25;5260245;28;20021;-68
2021/10/04 01:56:30;;;;;;;4.07;1.42;;;;;;;10.67;100.00;101155.84;5260173;28;20513;-69
2021/10/04 01:59:01;;;;;;;5.78;1.48;;;;;;;10.61;100.00;101148.50;5258684;28;20020;-68
2021/10/04 02:01:33;;;;;;;4.00;1.65;;;;;;;10.59;100.00;101147.75;5264097;28;20093;-68
2021/10/04 02:04:04;;;;;;;4.25;1.27;;;;;;;10.58;100.00;101149.56;5267585;28;20028;-68
2021/10/04 02:06:35;;;;;;;2.58;1.30;;;;;;;10.56;100.00;101153.25;5279091;28;20028;-68
2021/10/04 02:09:07;;;;;;;4.20;1.20;;;;;;;10.56;100.00;101148.00;5261306;28;20405;-68
2021/10/04 02:11:38;;;;;;;7.75;1.60;;;;;;;10.52;100.00;101144.78;5259780;28;20341;-68
2021/10/04 02:14:09;;;;;;;3.83;1.38;;;;;;;10.60;100.00;101152.88;5260084;28;20074;-68
2021/10/04 02:16:41;;;;;;;5.47;1.50;;;;;;;10.59;100.00;101158.25;5256166;28;20032;-69
2021/10/04 02:19:13;;;;;;;3.85;1.25;;;;;;;10.57;100.00;101153.13;5259265;28;20409;-68
2021/10/04 02:21:44;;;;;;;4.85;1.60;;;;;;;10.57;100.00;101157.53;5259803;28;20025;-68
2021/10/04 02:24:15;;;;;;;5.05;1.52;;;;;;;10.51;100.00;101160.66;5259938;28;20027;-68
2021/10/04 02:26:47;;;;;;;3.90;1.55;;;;;;;10.53;100.00;101154.34;5255292;28;20053;-68
2021/10/04 02:29:18;;;;;;;2.97;1.30;;;;;;;10.53;100.00;101151.72;5259217;28;20025;-68
2021/10/04 02:31:49;;;;;;;3.03;1.50;;;;;;;10.54;100.00;101142.06;5258844;28;20053;-68
2021/10/04 02:34:21;;;;;;;3.38;1.92;;;;;;;10.53;100.00;101143.00;5256210;28;20071;-68
2021/10/04 02:36:52;;;;;;;3.13;1.20;;;;;;;10.53;100.00;101135.16;5259910;28;20037;-69
2021/10/04 02:39:23;;;;;;;4.55;1.80;;;;;;;10.52;100.00;101149.19;5259299;28;20090;-69
2021/10/04 02:41:55;;;;;;;4.75;1.30;;;;;;;10.53;100.00;101149.09;5257525;28;20025;-68
2021/10/04 02:44:26;;;;;;;4.68;1.60;;;;;;;10.51;100.00;101147.53;5253786;28;20025;-68
2021/10/04 02:46:58;;;;;;;5.43;1.77;;;;;;;10.51;100.00;101158.03;5259319;28;20036;-68
2021/10/04 02:49:29;;;;;;;3.40;1.30;;;;;;;10.50;100.00;101145.88;5259564;28;20024;-68
2021/10/04 02:52:00;;;;;;;5.20;2.03;;;;;;;10.52;100.00;101157.06;5252177;28;20052;-68
2021/10/04 02:54:32;;;;;;;4.07;1.40;;;;;;;10.52;100.00;101154.44;5252801;28;20221;-68
2021/10/04 02:57:03;;;;;;;4.90;1.40;;;;;;;10.50;100.00;101151.97;5258914;28;20035;-69
2021/10/04 02:59:34;;;;;;;4.93;1.75;;;;;;;10.51;100.00;101150.16;5259451;28;20025;-69
2021/10/04 03:02:06;;;;;;;3.22;1.20;;;;;;;10.52;100.00;101162.31;5258849;28;20090;-68
2021/10/04 03:04:37;;;;;;;3.63;1.33;;;;;;;10.53;100.00;101162.19;5253471;28;20055;-68
2021/10/04 03:07:09;;;;;;;4.95;2.17;;;;;;;10.55;100.00;101162.91;5259113;28;20414;-68
2021/10/04 03:09:40;;;;;;;4.40;1.48;;;;;;;10.54;100.00;101160.41;5249827;28;20033;-68
2021/10/04 03:12:11;;;;;;;9.75;1.60;;;;;;;10.58;100.00;101172.31;5253298;28;20032;-68
2021/10/04 03:14:43;;;;;;;2.55;1.30;;;;;;;10.57;100.00;101176.72;5257747;28;20041;-69
2021/10/04 03:17:15;;;;;;;2.60;1.10;;;;;;;10.58;100.00;101182.78;5258930;28;20040;-68
2021/10/04 03:19:46;;;;;;;4.20;1.50;;;;;;;10.59;100.00;101184.44;5262054;28;20032;-69
2021/10/04 03:22:17;;;;;;;3.67;1.20;;;;;;;10.59;100.00;101179.19;5261944;28;20021;-69
2021/10/04 03:24:49;;;;;;;4.30;1.10;;;;;;;10.58;100.00;101177.53;5262427;28;20082;-69
2021/10/04 03:27:20;;;;;;;3.03;1.55;;;;;;;10.56;100.00;101177.66;5263255;28;20029;-69
2021/10/04 03:29:51;;;;;;;3.72;1.08;;;;;;;10.61;100.00;101193.03;5261804;28;20095;-69
2021/10/04 03:32:23;;;;;;;5.15;1.20;;;;;;;10.64;100.00;101188.34;5254015;28;20163;-69
2021/10/04 03:34:54;;;;;;;3.13;1.15;;;;;;;10.65;100.00;101191.81;5262234;28;20021;-69
2021/10/04 03:37:25;;;;;;;2.95;1.33;;;;;;;10.65;100.00;101195.28;5263133;28;20037;-68
2021/10/04 03:39:56;;;;;;;5.10;1.40;;;;;;;10.66;100.00;101196.09;5259739;28;20064;-68
2021/10/04 03:42:28;;;;;;;2.72;1.40;;;;;;;10.64;100.00;101209.31;5254876;28;20024;-68
2021/10/04 03:44:59;;;;;;;6.53;1.40;;;;;;;10.63;100.00;101205.03;5263190;28;20025;-69
2021/10/04 03:47:31;;;;;;;4.53;1.35;;;;;;;10.69;100.00;101206.34;5262809;28;20390;-69
2021/10/04 03:50:05;;;;;;;6.13;1.52;;;;;;;10.70;100.00;101203.59;5260064;28;20056;-69
2021/10/04 03:52:38;;;;;;;6.25;1.38;;;;;;;10.72;100.00;101206.13;5254929;28;20044;-69
2021/10/04 03:55:11;;;;;;;7.75;1.48;;;;;;;10.71;100.00;101199.19;5241746;28;20021;-69
2021/10/04 03:57:44;;;;;;;5.93;1.02;;;;;;;10.72;100.00;101203.50;5242249;28;20486;-69
2021/10/04 04:00:20;;;;;;;5.05;1.38;;;;;;;10.78;100.00;101218.72;5254386;28;20013;-68
2021/10/04 04:02:51;;;;;;;4.63;1.20;;;;;;;10.73;100.00;101206.94;5280042;28;20028;-69
2021/10/04 04:05:23;;;;;;;5.25;1.23;;;;;;;10.77;100.00;101213.59;5266422;28;20421;-68
2021/10/04 04:07:54;;;;;;;3.03;1.33;;;;;;;10.79;100.00;101222.97;5255824;28;20169;-68
2021/10/04 04:10:25;;;;;;;4.63;1.00;;;;;;;10.81;100.00;101236.00;5261872;28;20111;-70
2021/10/04 04:12:57;;;;;;;3.00;1.35;;;;;;;10.80;100.00;101232.53;5262556;28;20029;-68
2021/10/04 04:15:28;;;;;;;2.90;1.00;;;;;;;10.81;100.00;101236.00;5256504;28;20036;-68
2021/10/04 04:18:00;;;;;;;4.32;1.00;;;;;;;10.81;100.00;101236.81;5253844;28;20102;-69
2021/10/04 04:20:32;;;;;;;4.60;1.38;;;;;;;10.81;100.00;101231.56;5261268;28;20099;-69
2021/10/04 04:23:03;;;;;;;2.92;0.90;;;;;;;10.82;100.00;101233.22;5261651;28;20028;-68
2021/10/04 04:25:35;;;;;;;4.57;1.20;;;;;;;10.81;100.00;101236.00;5254691;28;20407;-69
2021/10/04 04:28:06;;;;;;;6.50;1.42;;;;;;;10.81;100.00;101234.19;5262194;28;20020;-69
2021/10/04 04:30:38;;;;;;;5.65;1.10;;;;;;;10.83;100.00;101231.44;5261459;28;20044;-69
2021/10/04 04:33:09;;;;;;;4.88;0.95;;;;;;;10.80;100.00;101243.03;5259617;28;20040;-69
2021/10/04 04:35:40;;;;;;;5.50;1.27;;;;;;;10.80;100.00;101242.19;5258623;28;20028;-69
2021/10/04 04:38:12;;;;;;;3.30;1.17;;;;;;;10.78;100.00;101241.47;5262081;28;20025;-68
2021/10/04 04:40:44;;;;;;;2.83;1.00;;;;;;;10.74;100.00;101238.25;5261932;28;20041;-69
2021/10/04 04:43:15;;;;;;;6.78;1.33;;;;;;;10.78;100.00;101257.19;5260095;28;20078;-69
2021/10/04 04:45:46;;;;;;;4.82;1.08;;;;;;;10.78;100.00;101265.06;5261458;28;20024;-68
2021/10/04 04:48:17;;;;;;;5.13;1.20;;;;;;;10.78;100.00;101268.50;5260729;28;20036;-69
2021/10/04 04:50:49;;;;;;;3.90;1.17;;;;;;;10.79;100.00;101264.91;5261933;28;20017;-69
2021/10/04 04:53:20;;;;;;;5.93;1.13;;;;;;;10.80;100.00;101271.03;5259455;28;20029;-69
2021/10/04 04:55:51;;;;;;;2.50;0.93;;;;;;;10.80;100.00;101269.22;5261135;28;20106;-69
2021/10/04 04:58:23;;;;;;;2.83;0.88;;;;;;;10.78;100.00;101268.50;5261543;28;20612;-68
2021/10/04 05:00:54;;;;;;;8.18;1.33;;;;;;;10.78;100.00;101280.78;5258105;28;20471;-69
2021/10/04 05:03:25;;;;;;;4.18;1.27;;;;;;;10.78;100.00;101283.41;5261361;28;20033;-69
2021/10/04 05:05:57;;;;;;;3.58;1.20;;;;;;;10.80;100.00;101294.59;5261244;28;20390;-69
2021/10/04 05:08:28;;;;;;;3.42;1.23;;;;;;;10.79;100.00;101279.81;5261079;28;20025;-69
2021/10/04 05:11:00;;;;;;;6.68;1.52;;;;;;;10.78;100.00;101273.75;5257800;28;20058;-69
2021/10/04 05:13:31;;;;;;;2.45;1.20;;;;;;;10.76;100.00;101272.19;5261491;28;20027;-69
2021/10/04 05:16:03;;;;;;;6.18;1.25;;;;;;;10.77;100.00;101281.75;5251859;28;20090;-68
2021/10/04 05:18:34;;;;;;;2.85;1.30;;;;;;;10.79;100.00;101287.69;5252577;28;20509;-69
2021/10/04 05:21:05;;;;;;;5.80;1.40;;;;;;;10.78;100.00;101288.63;5261003;28;20108;-69
2021/10/04 05:23:36;;;;;;;3.70;1.10;;;;;;;10.79;100.00;101293.75;5260376;28;20390;-69
2021/10/04 05:26:08;;;;;;;3.90;1.23;;;;;;;10.79;100.00;101291.13;5259619;28;20036;-69
2021/10/04 05:28:39;;;;;;;4.78;1.58;;;;;;;10.79;100.00;101301.63;5257416;28;20578;-69
2021/10/04 05:31:10;;;;;;;4.93;0.98;;;;;;;10.78;100.00;101304.38;5260261;28;20653;-68
2021/10/04 05:33:42;;;;;;;3.95;1.25;;;;;;;10.77;100.00;101306.16;5261040;28;20099;-69
2021/10/04 05:36:13;;;;;;;3.72;1.10;;;;;;;10.76;100.00;101307.13;5256279;28;20021;-69
2021/10/04 05:38:46;;;;;;;4.95;1.05;;;;;;;10.67;100.00;101292.09;5250532;28;20068;-69
2021/10/04 05:41:18;;;;;;;3.80;1.17;;;;;;;10.70;100.00;101299.72;5264278;28;20025;-69
2021/10/04 05:43:49;;;;;;;5.53;1.20;;;;;;;10.70;100.00;101311.03;5260567;28;20039;-69
2021/10/04 05:46:21;;;;;;;4.32;1.83;;;;;;;10.71;100.00;101314.47;5262356;28;20024;-69
2021/10/04 05:48:52;;;;;;;4.80;1.27;;;;;;;10.70;100.00;101304.97;5263529;28;20036;-70
2021/10/04 05:51:23;;;;;;;5.18;1.20;;;;;;;10.71;100.00;101304.00;5263197;28;20021;-69
2021/10/04 05:53:55;;;;;;;3.13;1.00;;;;;;;10.67;100.00;101297.34;5260211;28;20460;-69
2021/10/04 05:56:26;;;;;;;5.57;1.30;;;;;;;10.74;100.00;101303.78;5260002;28;20040;-69
2021/10/04 05:58:57;;;;;;;3.17;1.25;;;;;;;10.82;100.00;101313.66;5325055;22;20139;-68
2021/10/04 06:07:38;;;;;;;5.75;1.00;;;;;;;10.87;100.00;101317.59;6273373;22;20057;-69
2021/10/04 06:10:11;;;;;;;5.40;1.40;;;;;;;10.87;100.00;101325.47;5243162;28;20490;-70
2021/10/04 06:12:42;;;;;;;3.13;1.00;;;;;;;10.88;100.00;101336.78;5243076;28;20364;-68
2021/10/04 06:15:14;;;;;;;6.47;1.30;;;;;;;10.88;100.00;101334.97;5242296;28;20075;-69
2021/10/04 06:17:45;;;;;;;3.38;1.23;;;;;;;10.90;100.00;101358.44;5242032;28;20037;-69
2021/10/04 06:20:16;;;;;;;5.03;1.45;;;;;;;10.89;100.00;101352.38;5243608;28;20486;-69
2021/10/04 06:22:48;;;;;;;5.05;0.98;;;;;;;10.93;100.00;101364.28;5239890;28;20101;-68
2021/10/04 06:25:20;;;;;;;3.33;1.27;;;;;;;10.95;100.00;101365.00;5240896;28;20175;-68
2021/10/04 06:27:54;;;;;;;6.35;1.08;;;;;;;10.96;100.00;101382.41;5240896;28;20107;-69
2021/10/04 06:30:26;;;;;;;3.75;1.30;;;;;;;11.01;100.00;101376.78;5242823;28;20035;-69
2021/10/04 06:32:57;;;;;;;4.63;1.23;;;;;;;11.03;100.00;101382.75;5244804;28;20018;-69
2021/10/04 06:35:29;;;;;;;4.68;1.20;;;;;;;11.04;100.00;101380.97;5243925;28;20025;-68
2021/10/04 06:38:01;;;;;;;7.35;1.15;;;;;;;11.05;100.00;101380.84;5242681;28;20160;-69
2021/10/04 06:40:32;;;;;;;3.42;0.80;;;;;;;11.04;100.00;101387.03;5244185;28;20033;-69
2021/10/04 06:43:04;;;;;;;3.80;1.30;;;;;;;11.05;100.00;101386.09;5237599;28;20446;-69
2021/10/04 06:45:35;;;;;;;6.75;1.35;;;;;;;11.07;100.00;101392.06;5238513;28;20057;-69
2021/10/04 06:48:07;;;;;;;6.10;1.38;;;;;;;10.99;100.00;101389.19;5236798;28;20037;-69
2021/10/04 06:50:38;;;;;;;5.95;1.08;;;;;;;11.01;100.00;101397.75;5224692;28;20117;-71
2021/10/04 06:53:10;;;;;;;4.22;1.00;;;;;;;11.04;100.00;101407.19;5238380;28;20029;-70
2021/10/04 06:55:41;;;;;;;5.10;1.20;;;;;;;11.01;100.00;101399.56;5235666;28;20051;-69
2021/10/04 06:58:12;;;;;;;5.80;1.27;;;;;;;11.00;100.00;101406.59;5236348;28;20033;-69
2021/10/04 07:00:44;;;;;;;3.83;1.13;;;;;;;10.99;100.00;101401.47;5235824;28;20033;-69
2021/10/04 07:03:15;;;;;;;6.50;1.10;;;;;;;10.98;100.00;101405.03;5238917;28;20032;-69
2021/10/04 07:05:47;;;;;;;5.45;1.13;;;;;;;10.94;100.00;101393.94;5240764;28;20033;-69
2021/10/04 07:08:19;;;;;;;4.32;0.93;;;;;;;10.96;100.00;101387.66;5241746;28;20560;-70
2021/10/04 07:10:50;;;;;;;6.10;1.17;;;;;;;10.92;100.00;101390.63;5240028;28;20045;-69
2021/10/04 07:13:21;;;;;;;5.35;1.17;;;;;;;10.90;100.00;101392.53;5234450;28;20022;-69
2021/10/04 07:15:53;;;;;;;3.25;0.90;;;;;;;10.89;100.00;101399.56;5233138;28;20057;-69
2021/10/04 07:18:24;;;;;;;5.07;1.10;;;;;;;10.88;100.00;101394.44;5239735;28;20471;-70
2021/10/04 07:20:56;;;;;;;4.28;1.23;;;;;;;10.89;100.00;101406.59;5229421;28;20490;-69
2021/10/04 07:23:27;;;;;;;5.82;0.90;;;;;;;10.84;100.00;101399.09;5240167;28;20483;-69
2021/10/04 07:25:58;;;;;;;10.25;1.83;;;;;;;10.91;100.00;101408.16;5235041;28;20509;-70
2021/10/04 07:28:30;;;;;;;4.65;1.10;;;;;;;10.89;100.00;101410.03;5234684;28;20528;-69
2021/10/04 07:31:02;;;;;;;3.17;1.23;;;;;;;10.89;100.00;101417.06;5234763;28;20030;-69
2021/10/04 07:33:33;;;;;;;6.50;1.35;;;;;;;10.91;100.00;101405.53;5240716;28;20033;-69
2021/10/04 07:36:06;;;;;;;5.55;1.30;;;;;;;10.88;100.00;101407.56;5238892;28;20041;-71
2021/10/04 07:38:38;;;;;;;5.35;1.40;;;;;;;10.88;100.00;101413.63;5235584;28;20037;-69
2021/10/04 07:41:09;;;;;;;3.97;1.25;;;;;;;10.86;100.00;101415.50;5238747;28;20432;-69
2021/10/04 07:43:40;;;;;;;6.50;1.10;;;;;;;10.89;100.00;101412.66;5233703;28;20033;-69
2021/10/04 07:46:12;;;;;;;5.53;1.40;;;;;;;10.91;100.00;101415.16;5236982;28;20396;-69
2021/10/04 07:48:44;;;;;;;6.80;1.40;;;;;;;10.96;100.00;101419.09;5241055;28;20020;-70
2021/10/04 07:51:17;;;;;;;4.88;1.58;;;;;;;11.03;100.00;101419.47;5238573;28;20036;-69
2021/10/04 07:53:51;;;;;;;3.28;1.27;;;;;;;11.09;100.00;101426.00;5240126;28;20021;-69
2021/10/04 07:56:23;;;;;;;6.40;1.10;;;;;;;11.17;100.00;101432.34;5239917;28;20061;-70
2021/10/04 07:58:55;;;;;;;5.93;1.35;;;;;;;11.22;100.00;101433.78;5244214;28;20095;-69
2021/10/04 08:01:27;;;;;;;5.88;1.50;;;;;;;11.26;100.00;101417.69;5241089;28;20029;-69
2021/10/04 08:03:59;;;;;;;5.88;1.40;;;;;;;11.36;100.00;101415.16;5242735;28;20059;-69
2021/10/04 08:06:30;;;;;;;4.55;1.52;;;;;;;11.42;100.00;101410.25;5246248;28;20044;-70
2021/10/04 08:09:02;;;;;;;5.63;1.23;;;;;;;11.48;100.00;101408.94;5241609;28;20045;-70
2021/10/04 08:11:33;;;;;;;5.45;1.75;;;;;;;11.58;100.00;101412.50;5244119;28;20068;-70
2021/10/04 08:14:04;;;;;;;5.90;1.35;;;;;;;11.67;100.00;101413.56;5245425;28;20028;-69
2021/10/04 08:16:35;;;;;;;6.53;1.42;;;;;;;11.70;100.00;101413.28;5243280;28;20493;-69
2021/10/04 08:19:07;;;;;;;7.35;1.38;;;;;;;11.81;100.00;101421.13;5243351;28;20029;-69
2021/10/04 08:21:38;;;;;;;5.20;1.55;;;;;;;11.88;100.00;101411.84;5241030;28;20060;-71
2021/10/04 08:24:09;;;;;;;5.85;1.05;;;;;;;11.89;100.00;101404.78;5243449;28;20033;-71
2021/10/04 08:26:41;;;;;;;4.10;1.23;;;;;;;12.01;100.00;101411.69;5243056;28;20036;-68
2021/10/04 08:29:13;;;;;;;7.15;2.00;;;;;;;12.00;100.00;101415.25;5244201;28;20107;-69
2021/10/04 08:31:44;;;;;;;5.35;1.58;;;;;;;12.14;100.00;101411.50;5240187;28;20481;-69
2021/10/04 08:34:15;;;;;;;5.15;1.30;;;;;;;12.20;100.00;101421.53;5243896;28;20034;-69
2021/10/04 08:36:47;;;;;;;5.63;1.40;;;;;;;12.33;100.00;101416.91;5245338;28;20083;-69
2021/10/04 08:39:18;;;;;;;5.55;1.30;;;;;;;12.51;100.00;101413.72;5245104;28;20025;-68
2021/10/04 08:41:52;;;;;;;9.93;1.65;;;;;;;12.64;100.00;101417.78;5242959;28;20033;-69
2021/10/04 08:44:25;;;;;;;5.97;1.40;;;;;;;12.72;100.00;101417.16;5237443;28;20044;-70
2021/10/04 08:46:56;;;;;;;;;;;;;;;12.97;100.00;101426.41;5243515;28;20024;-69
2021/10/04 08:49:29;;;;;;;8.13;1.40;;;;;;;12.94;100.00;101421.41;5244437;28;19921;-70
2021/10/04 08:52:01;;;;;;;8.10;1.60;;;;;;;13.03;100.00;101419.78;5243390;28;20049;-70
2021/10/04 08:54:33;;;;;;;5.57;1.50;;;;;;;13.14;100.00;101419.69;5244749;28;20116;-69
2021/10/04 08:57:05;;;;;;;4.25;1.15;;;;;;;13.22;100.00;101416.41;5243198;28;20409;-70
2021/10/04 08:59:37;;;;;;;5.05;1.13;;;;;;;13.30;100.00;101414.00;5242440;28;20029;-70
2021/10/04 09:02:31;;;;;;;8.10;1.60;;;;;;;13.38;100.00;101420.25;5240308;28;20033;-70
2021/10/04 09:05:16;;;;;;;6.50;1.48;;;;;;;13.48;100.00;101417.63;5243070;28;20418;-71
2021/10/04 09:07:50;;;;;;;5.38;1.33;;;;;;;13.49;100.00;101426.38;5245649;28;20469;-70
2021/10/04 09:10:30;;;;;;;3.85;1.70;;;;;;;13.61;100.00;101414.75;5242918;28;20079;-70
2021/10/04 09:13:09;;;;;;;8.13;1.40;;;;;;;13.65;100.00;101431.94;5243459;28;20017;-70
2021/10/04 09:15:46;;;;;;;4.63;1.23;;;;;;;13.81;100.00;101431.41;5242674;28;20033;-70
2021/10/04 09:18:30;;;;;;;7.05;1.33;;;;;;;13.92;100.00;101418.09;5244047;28;21187;-69
2021/10/04 09:21:05;;;;;;;5.07;1.52;;;;;;;13.96;100.00;101431.84;5244438;28;20620;-70
2021/10/04 09:23:44;;;;;;;6.50;1.40;;;;;;;14.08;100.00;101422.81;5242590;28;20167;-71
2021/10/04 09:26:25;;;;;;;7.10;1.33;;;;;;;14.26;100.00;101423.78;5243828;28;20021;-70
2021/10/04 09:29:02;;;;;;;9.55;1.38;;;;;;;14.30;100.00;101426.97;5242798;28;20399;-70
2021/10/04 09:31:39;;;;;;;4.47;1.33;;;;;;;14.36;100.00;101432.53;5240635;28;20029;-71
2021/10/04 09:34:17;;;;;;;6.97;1.60;;;;;;;14.49;100.00;101427.00;5243654;28;20025;-70
2021/10/04 09:36:57;;;;;;;4.90;1.30;;;;;;;14.57;100.00;101437.66;5234171;28;20029;-70
2021/10/04 09:39:31;;;;;;;6.85;1.08;;;;;;;14.71;100.00;101425.84;5244177;28;20032;-70
2021/10/04 09:42:02;;;;;;;;;;;;;;;14.93;100.00;101429.94;5244464;28;20024;-70
2021/10/04 09:44:52;;;;;;;6.97;1.27;;;;;;;14.94;100.00;101434.25;5242230;28;20448;-70
2021/10/04 09:47:27;;;;;;;4.45;1.00;;;;;;;14.83;100.00;101426.50;5238791;28;20033;-70
2021/10/04 09:50:09;;;;;;;3.78;1.10;;;;;;;15.00;100.00;101424.91;5242421;28;20025;-70
2021/10/04 09:52:56;;;;;;;6.13;1.50;;;;;;;15.16;100.00;101440.13;5247464;28;20403;-70
2021/10/04 09:55:29;;;;;;;7.30;1.75;;;;;;;15.12;100.00;101442.22;5243119;28;20030;-70
2021/10/04 09:58:16;;;;;;;4.57;1.23;;;;;;;15.20;100.00;101433.59;5241753;28;20025;-70
2021/10/04 10:00:53;;;;;;;8.27;1.35;;;;;;;15.06;100.00;101434.88;5241131;28;20454;-70
2021/10/04 10:03:28;;;;;;;4.53;1.05;;;;;;;15.15;100.00;101435.81;5241049;28;20642;-71
2021/10/04 10:06:00;;;;;;;7.18;1.42;;;;;;;15.26;100.00;101431.16;5239468;28;20136;-70
2021/10/04 10:08:32;;;;;;;8.45;1.75;;;;;;;15.43;100.00;101437.50;5243062;28;20053;-71
2021/10/04 10:11:06;;;;;;;6.75;1.15;;;;;;;15.63;100.00;101430.28;5240584;28;20513;-70
2021/10/04 10:13:37;;;;;;;8.73;1.33;;;;;;;15.67;100.00;101423.75;5244077;28;20039;-71
2021/10/04 10:16:15;;;;;;;4.07;1.20;;;;;;;15.73;100.00;101424.97;5242608;28;20029;-71
2021/10/04 10:18:52;;;;;;;6.30;1.52;;;;;;;15.81;100.00;101425.88;5243873;28;20383;-70
2021/10/04 10:21:26;;;;;;;5.95;1.23;;;;;;;15.74;100.00;101427.47;5240985;28;20029;-70
2021/10/04 10:24:00;;;;;;;6.63;1.90;;;;;;;15.71;100.00;101430.41;5233404;28;20455;-71
2021/10/04 10:26:59;;;;;;;5.72;1.65;;;;;;;15.81;100.00;101425.88;5240793;28;20416;-71
2021/10/04 10:29:31;;;;;;;4.70;1.13;;;;;;;15.88;100.00;101426.13;5237803;28;20096;-70
2021/10/04 10:32:05;;;;;;;8.30;1.73;;;;;;;15.95;100.00;101431.66;5243912;28;20025;-71
2021/10/04 10:34:36;;;;;;;7.07;1.50;;;;;;;16.04;100.00;101422.81;5244434;28;20029;-71
2021/10/04 10:37:21;;;;;;;7.45;1.60;;;;;;;16.16;100.00;101429.50;5242716;28;20039;-71
2021/10/04 10:40:15;;;;;;;8.45;1.23;;;;;;;16.33;100.00;101424.34;5242118;28;20045;-71
2021/10/04 10:43:02;;;;;;;5.53;1.23;;;;;;;16.50;100.00;101420.84;5240596;28;20040;-70
2021/10/04 10:45:47;;;;;;;6.30;1.23;;;;;;;16.52;100.00;101422.38;5242057;28;20044;-72
2021/10/04 10:48:40;;;;;;;5.65;1.00;;;;;;;16.74;100.00;101431.63;5243086;28;20029;-72
2021/10/04 10:51:11;;;;;;;4.93;1.48;;;;;;;16.75;100.00;101428.00;5244168;28;20551;-72
2021/10/04 10:53:43;;;;;;;9.35;1.38;;;;;;;16.88;100.00;101432.03;5243067;28;20021;-73
2021/10/04 10:56:14;;;;;;;4.82;1.20;;;;;;;16.89;100.00;101431.03;5241477;28;20033;-72
2021/10/04 10:58:45;;;;;;;5.82;1.17;;;;;;;16.91;100.00;101421.97;5243075;28;20043;-72
2021/10/04 11:01:17;;;;;;;5.22;1.23;;;;;;;16.96;100.00;101435.53;5242896;28;20422;-72
2021/10/04 11:03:53;;;;;;;7.10;1.63;;;;;;;16.98;100.00;101430.13;5244907;28;20044;-72
2021/10/04 11:06:43;;;;;;;8.15;1.70;;;;;;;17.12;100.00;101431.31;5235132;28;20064;-72
2021/10/04 11:09:14;;;;;;;4.47;1.20;;;;;;;17.05;100.00;101433.78;5242221;28;20056;-72
2021/10/04 11:11:56;;;;;;;5.35;1.13;;;;;;;17.24;100.00;101427.41;5244756;28;20033;-72
2021/10/04 11:14:27;;;;;;;5.65;1.40;;;;;;;17.24;100.00;101433.53;5240402;28;20041;-72
2021/10/04 11:17:00;;;;;;;6.10;1.33;;;;;;;17.31;100.00;101440.84;5237461;28;20035;-72
2021/10/04 11:19:35;;;;;;;;;;;;;;;17.59;100.00;101438.78;5237983;28;20029;-70
2021/10/04 11:22:18;;;;;;;5.38;1.50;;;;;;;17.57;100.00;101438.09;5242177;28;20023;-70
2021/10/04 11:24:59;;;;;;;8.93;1.52;;;;;;;17.60;100.00;101448.41;5240000;28;20078;-71
2021/10/04 11:27:30;;;;;;;6.55;1.45;;;;;;;17.37;100.00;101440.22;5243388;28;20041;-69
2021/10/04 11:30:04;;;;;;;8.57;1.08;;;;;;;17.38;100.00;101444.50;5239947;28;20672;-70
2021/10/04 11:32:36;;;;;;;6.63;1.30;;;;;;;17.62;100.00;101438.47;5241761;28;20075;-71
2021/10/04 11:35:15;;;;;;;7.70;1.58;;;;;;;17.62;100.00;101449.91;5241944;28;20021;-71
2021/10/04 11:37:46;;;;;;;8.95;1.52;;;;;;;17.47;100.00;101431.16;5240678;28;20379;-71
2021/10/04 11:40:17;;;;;;;7.25;1.15;;;;;;;17.35;100.00;101435.09;5243978;28;20021;-68
2021/10/04 11:42:49;;;;;;;4.88;1.13;;;;;;;17.44;100.00;101436.75;5245437;28;20127;-71
2021/10/04 11:45:26;;;;;;;5.88;1.77;;;;;;;17.40;100.00;101427.47;5244190;28;20032;-71
2021/10/04 11:47:57;;;;;;;10.65;1.40;;;;;;;17.34;100.00;101414.84;5245859;28;20037;-70